Time;durP1;ratioP1;P1;durP2;ratioP2;P2;SDS_P1;SDS_P2;PMS_P1;PMS_P2;Temp;Humidity;BMP_temperature;BMP_pressure;BME280_temperature;BME280_humidity;BME280_pressure;Samples;Min_cycle;Max_cycle;Signal;HPM_P1;HPM_P2
2022/02/07 00:02:11;;;;;;;0.00;0.00;;;19.40;30.00;19.40;92906.00;;;;10343376;28;47043;-72
2022/02/07 00:07:16;;;;;;;0.00;0.00;;;19.40;30.00;19.40;92902.00;;;;10361139;28;46300;-71
2022/02/07 00:12:17;;;;;;;0.08;0.00;;;19.40;30.00;19.40;92924.00;;;;10343680;28;47363;-71
2022/02/07 00:17:18;;;;;;;0.00;0.00;;;19.40;30.00;19.40;92915.00;;;;10342871;28;46559;-72
2022/02/07 00:22:19;;;;;;;0.00;0.00;;;19.40;30.00;19.40;92937.00;;;;10379769;28;47230;-72
2022/02/07 00:27:19;;;;;;;0.00;0.00;;;19.40;30.00;19.40;92959.00;;;;10400357;28;46517;-72
2022/02/07 00:32:20;;;;;;;0.08;0.00;;;19.40;30.00;19.40;92965.00;;;;10383456;28;47032;-72
2022/02/07 00:37:24;;;;;;;0.08;0.00;;;19.40;30.10;19.40;92953.00;;;;10383058;28;46887;-72
2022/02/07 00:42:32;;;;;;;0.00;0.00;;;19.40;30.10;19.40;92958.00;;;;10383492;28;47186;-72
2022/02/07 00:47:32;;;;;;;0.00;0.00;;;19.40;30.10;19.40;92960.00;;;;10383771;28;48036;-71
2022/02/07 00:52:33;;;;;;;0.00;0.00;;;19.40;30.10;19.40;92897.00;;;;10381380;28;47091;-72
2022/02/07 00:57:33;;;;;;;0.10;0.00;;;19.40;30.10;19.40;92962.00;;;;10382463;28;47169;-72
2022/02/07 01:02:34;;;;;;;0.00;0.00;;;19.40;30.10;19.40;92982.00;;;;10398760;28;48069;-72
2022/02/07 01:07:35;;;;;;;0.20;0.00;;;19.30;30.10;19.40;92984.00;;;;10382182;28;47085;-71
2022/02/07 01:55:19;;;;;;;0.00;0.00;;;19.30;30.30;19.30;93291.00;;;;10335660;28;45940;-72
2022/02/07 02:00:20;;;;;;;0.10;0.00;;;19.30;30.30;19.30;93265.00;;;;10352855;28;47040;-71
2022/02/07 02:05:21;;;;;;;0.00;0.00;;;19.30;30.30;19.30;93224.00;;;;10337258;28;46958;-72
2022/02/07 02:10:21;;;;;;;0.00;0.00;;;19.30;30.40;19.30;93284.00;;;;10338872;28;47142;-71
2022/02/07 02:15:35;;;;;;;0.00;0.00;;;19.30;30.40;19.30;93295.00;;;;10339363;28;46547;-72
2022/02/07 02:46:58;;;;;;;0.00;0.00;;;19.20;30.40;19.30;93437.00;;;;10396512;28;45227;-70
2022/02/07 02:51:59;;;;;;;0.00;0.00;;;19.20;30.30;19.30;93457.00;;;;10378842;28;47408;-70
2022/02/07 02:57:00;;;;;;;0.00;0.00;;;19.30;30.40;19.30;93447.00;;;;10378904;28;46875;-70
2022/02/07 03:02:00;;;;;;;0.00;0.00;;;19.20;30.40;19.30;93474.00;;;;10394872;28;46772;-70
2022/02/07 03:07:01;;;;;;;0.00;0.00;;;19.20;30.40;19.30;93473.00;;;;10394828;28;48326;-71
2022/02/07 03:12:03;;;;;;;0.00;0.00;;;19.20;30.40;19.30;93470.00;;;;10377493;28;47611;-71
2022/02/07 03:17:03;;;;;;;0.00;0.00;;;19.30;30.50;19.30;93470.00;;;;10378465;28;47018;-70
2022/02/07 03:22:05;;;;;;;0.00;0.00;;;19.30;30.50;19.30;93464.00;;;;10359348;28;47094;-71
2022/02/07 03:27:06;;;;;;;0.00;0.00;;;19.20;30.50;19.30;93454.00;;;;10337517;28;47044;-71
2022/02/07 03:32:07;;;;;;;0.00;0.00;;;19.20;30.50;19.30;93480.00;;;;10337768;28;47047;-71
2022/02/07 03:37:08;;;;;;;0.00;0.00;;;19.20;30.50;19.30;93480.00;;;;10353489;28;45548;-70
2022/02/07 03:42:09;;;;;;;0.00;0.00;;;19.20;30.40;19.30;93476.00;;;;10336236;28;47230;-70
2022/02/07 03:47:09;;;;;;;0.00;0.00;;;19.20;30.40;19.30;93529.00;;;;10354992;28;45196;-70
2022/02/07 03:52:10;;;;;;;0.00;0.00;;;19.20;30.40;19.30;93548.00;;;;10337022;28;47193;-70
2022/02/07 03:57:11;;;;;;;0.00;0.00;;;19.20;30.40;19.20;93565.00;;;;10336401;28;48068;-70
2022/02/07 04:02:12;;;;;;;0.10;0.00;;;19.20;30.40;19.30;93606.00;;;;10352809;28;47969;-70
2022/02/07 04:07:14;;;;;;;0.00;0.00;;;19.20;30.40;19.20;93621.00;;;;10335970;28;47168;-70
2022/02/07 04:12:20;;;;;;;0.00;0.00;;;19.20;30.40;19.20;93620.00;;;;10336243;28;47959;-70
2022/02/07 04:17:25;;;;;;;0.73;0.00;;;19.20;30.40;19.20;93655.00;;;;10336326;28;46717;-70
2022/02/07 04:22:29;;;;;;;0.10;0.03;;;19.20;30.30;19.20;93655.00;;;;10358047;28;46748;-72
2022/02/07 04:27:30;;;;;;;0.10;0.00;;;19.20;30.30;19.20;93700.00;;;;10400093;28;45655;-70
2022/02/07 04:32:30;;;;;;;0.20;0.00;;;19.20;30.20;19.20;93721.00;;;;10383497;28;46971;-70
2022/02/07 04:37:31;;;;;;;0.20;0.00;;;19.20;30.20;19.20;93726.00;;;;10382926;28;46786;-71
2022/02/07 04:42:32;;;;;;;0.25;0.00;;;19.10;30.20;19.20;93751.00;;;;10399534;28;46933;-71
2022/02/07 04:58:08;;;;;;;0.10;0.00;;;19.10;30.00;19.10;93795.00;;;;10399767;28;45749;-71
2022/02/07 05:03:18;;;;;;;0.32;0.00;;;19.20;30.10;19.20;93807.00;;;;10383325;28;46685;-70
2022/02/07 05:13:45;;;;;;;0.45;0.10;;;19.10;30.10;19.20;93869.00;;;;10399638;28;45585;-70
2022/02/07 05:18:49;;;;;;;0.15;0.00;;;19.10;30.00;19.20;93896.00;;;;10382954;28;48287;-71
2022/02/07 05:23:51;;;;;;;0.63;0.10;;;19.10;30.00;19.20;93899.00;;;;10348789;28;46905;-71
2022/02/07 05:28:52;;;;;;;0.50;0.10;;;19.10;29.90;19.20;93925.00;;;;10340981;28;47449;-70
2022/02/07 05:33:53;;;;;;;0.77;0.10;;;19.20;30.00;19.20;93952.00;;;;10340374;28;47203;-71
2022/02/07 05:38:58;;;;;;;1.08;0.20;;;19.20;30.00;19.30;93960.00;;;;10356592;28;45119;-71
2022/02/07 05:43:59;;;;;;;0.28;0.10;;;19.20;30.10;19.30;93975.00;;;;10356366;28;45271;-71
2022/02/07 05:48:59;;;;;;;0.65;0.10;;;19.20;30.20;19.30;93977.00;;;;10340289;28;47127;-70
2022/02/07 05:54:00;;;;;;;0.95;0.13;;;19.30;30.20;19.30;94006.00;;;;10339752;28;47207;-71
2022/02/07 05:59:01;;;;;;;0.47;0.20;;;19.30;30.20;19.40;94007.00;;;;10340182;28;47749;-71
2022/02/07 06:04:01;;;;;;;1.70;0.20;;;19.30;30.20;19.40;94021.00;;;;10356177;28;45615;-70
2022/02/07 06:09:03;;;;;;;0.35;0.10;;;19.40;30.20;19.40;94040.00;;;;10356131;28;45498;-71
2022/02/07 06:14:03;;;;;;;0.82;0.10;;;19.40;30.20;19.40;94055.00;;;;10338945;28;47245;-71
2022/02/07 06:19:04;;;;;;;0.82;0.20;;;19.40;30.20;19.50;94073.00;;;;10339505;28;46938;-70
2022/02/07 06:24:06;;;;;;;1.00;0.17;;;19.50;30.20;19.50;94081.00;;;;10355362;28;46007;-70
2022/02/07 06:29:07;;;;;;;0.88;0.10;;;19.40;30.00;19.50;94092.00;;;;10338893;28;46782;-70
2022/02/07 06:34:08;;;;;;;0.43;0.20;;;19.50;30.00;19.50;94111.00;;;;10338572;28;48307;-71
2022/02/07 06:39:09;;;;;;;2.83;0.20;;;19.50;30.00;19.50;94133.00;;;;10356873;28;45232;-70
2022/02/07 06:44:10;;;;;;;0.80;0.20;;;19.50;29.90;19.60;94135.00;;;;10354316;28;46291;-72
2022/02/07 06:49:11;;;;;;;0.50;0.20;;;19.60;29.90;19.60;94149.00;;;;10336766;28;46971;-71
2022/02/07 06:54:12;;;;;;;0.45;0.10;;;19.60;29.80;19.60;94161.00;;;;10354656;28;46490;-71
2022/02/07 06:59:16;;;;;;;0.68;0.28;;;19.60;29.70;19.60;94188.00;;;;10338205;28;48293;-70
2022/02/07 07:04:17;;;;;;;0.98;0.50;;;19.60;29.60;19.70;94203.00;;;;10338599;28;46984;-70
2022/02/07 07:09:17;;;;;;;1.17;0.40;;;19.60;29.50;19.60;94210.00;;;;10337731;28;47262;-71
2022/02/07 07:14:29;;;;;;;1.40;0.60;;;19.60;29.40;19.70;94231.00;;;;10336632;28;47897;-72
2022/02/07 07:19:30;;;;;;;0.80;0.47;;;19.70;29.30;19.70;94236.00;;;;10338918;28;48295;-72
2022/02/07 07:24:33;;;;;;;0.88;0.32;;;19.60;29.20;19.70;94239.00;;;;10336553;28;46894;-72
2022/02/07 07:29:38;;;;;;;1.20;0.47;;;19.70;29.20;19.70;94241.00;;;;10336356;28;47004;-72
2022/02/07 07:34:39;;;;;;;0.73;0.32;;;19.70;29.10;19.70;94264.00;;;;10339078;28;47188;-72
2022/02/07 07:39:40;;;;;;;1.33;0.30;;;19.70;29.00;19.70;94275.00;;;;10336894;28;48277;-72
2022/02/07 07:44:46;;;;;;;0.90;0.30;;;19.60;28.90;19.60;94270.00;;;;10388938;28;45295;-72
2022/02/07 07:50:06;;;;;;;1.00;0.47;;;19.70;29.00;19.70;94286.00;;;;10394833;28;46170;-72
2022/02/07 08:05:46;;;;;;;0.25;0.20;;;19.60;28.80;19.60;94330.00;;;;10401671;28;45091;-72
2022/02/07 08:11:02;;;;;;;2.13;0.40;;;19.60;28.80;19.60;94326.00;;;;10401082;28;45448;-73
2022/02/07 08:16:03;;;;;;;1.45;0.43;;;19.60;28.80;19.60;94351.00;;;;10384860;28;46921;-72
2022/02/07 08:21:04;;;;;;;0.82;0.28;;;19.60;28.70;19.60;94352.00;;;;10389774;28;45949;-72
2022/02/07 08:26:06;;;;;;;1.15;0.30;;;19.60;28.70;19.60;94369.00;;;;10357794;28;46872;-72
2022/02/07 08:31:06;;;;;;;1.63;0.38;;;19.60;28.70;19.60;94369.00;;;;10341564;28;47038;-72
2022/02/07 08:36:07;;;;;;;0.70;0.25;;;19.60;28.60;19.60;94382.00;;;;10341557;28;46908;-72
2022/02/07 08:41:07;;;;;;;0.45;0.10;;;19.60;28.60;19.60;94380.00;;;;10340693;28;48380;-73
2022/02/07 08:46:08;;;;;;;1.45;0.30;;;19.60;28.60;19.60;94406.00;;;;10340424;28;48209;-72
2022/02/07 08:51:09;;;;;;;2.00;0.20;;;19.60;28.60;19.60;94413.00;;;;10357182;28;46200;-73
2022/02/07 08:56:12;;;;;;;1.05;0.40;;;19.60;28.60;19.60;94419.00;;;;10356957;28;45121;-72
2022/02/07 09:01:22;;;;;;;0.70;0.28;;;19.60;28.60;19.60;94444.00;;;;10356712;28;45207;-72
2022/02/07 09:11:23;;;;;;;0.90;0.22;;;19.60;28.50;19.60;94436.00;;;;10355602;28;45157;-72
2022/02/07 09:16:29;;;;;;;2.45;0.30;;;19.60;28.50;19.60;94439.00;;;;10339925;28;47042;-73
2022/02/07 09:21:31;;;;;;;0.70;0.25;;;19.60;28.40;19.60;94474.00;;;;10354243;28;46838;-72
2022/02/07 09:26:32;;;;;;;1.83;0.40;;;19.60;28.40;19.60;94474.00;;;;10397312;28;45341;-73
2022/02/07 09:31:32;;;;;;;0.80;0.30;;;19.60;28.40;19.60;94509.00;;;;10380163;28;48366;-72
2022/02/07 09:36:33;;;;;;;1.23;0.40;;;19.60;28.40;19.60;94513.00;;;;10395877;28;48299;-73
2022/02/07 09:41:35;;;;;;;1.65;0.40;;;19.60;28.50;19.70;94508.00;;;;10379997;28;48208;-72
2022/02/07 09:46:45;;;;;;;0.52;0.20;;;19.60;28.50;19.70;94508.00;;;;10397425;28;45264;-73
2022/02/07 09:51:48;;;;;;;0.82;0.20;;;19.60;28.60;19.70;94529.00;;;;10380800;28;45473;-73
2022/02/07 09:56:50;;;;;;;0.60;0.20;;;19.70;28.70;19.70;94541.00;;;;10379154;28;46998;-72
2022/02/07 10:01:54;;;;;;;1.70;0.40;;;19.70;28.70;19.80;94544.00;;;;10395912;28;45290;-73
2022/02/07 10:07:04;;;;;;;1.13;0.40;;;19.70;28.80;19.80;94576.00;;;;10396252;28;45569;-72
2022/02/07 10:12:27;;;;;;;1.00;0.30;;;19.80;28.80;19.80;94561.00;;;;10379842;28;47154;-72
2022/02/07 10:17:43;;;;;;;0.98;0.35;;;19.80;28.80;19.90;94585.00;;;;10395881;28;45461;-72
2022/02/07 10:44:45;;;;;;;1.98;0.60;;;19.80;28.60;19.70;94632.00;;;;10378682;28;45215;-74
2022/02/07 10:50:10;;;;;;;2.05;0.50;;;19.70;27.90;19.60;94647.00;;;;10382493;28;45688;-74
2022/02/07 10:55:38;;;;;;;1.67;0.32;;;19.70;27.70;19.60;94649.00;;;;10379784;28;46279;-74
2022/02/07 11:00:53;;;;;;;2.33;0.50;;;19.60;27.00;19.60;94658.00;;;;10377956;28;46976;-73
2022/02/07 11:05:59;;;;;;;2.30;0.50;;;19.60;27.60;19.60;94662.00;;;;10365761;28;47013;-84
2022/02/07 11:16:20;;;;;;;20.65;1.85;;;19.50;28.10;19.50;94651.00;;;;10369935;28;45408;-82
2022/02/07 11:21:35;;;;;;;21.40;1.60;;;19.40;28.20;19.40;94644.00;;;;10341532;28;47210;-80
2022/02/07 11:26:47;;;;;;;13.05;1.27;;;19.30;28.10;19.30;94643.00;;;;10397265;28;45322;-80
2022/02/07 11:31:48;;;;;;;5.13;0.90;;;19.20;27.30;19.30;94657.00;;;;10381693;28;47772;-80
2022/02/07 11:36:49;;;;;;;6.47;1.02;;;19.20;28.00;19.30;94663.00;;;;10379513;28;47136;-80
2022/02/07 11:41:56;;;;;;;7.90;0.63;;;19.20;28.20;19.20;94705.00;;;;10379668;28;47236;-81
2022/02/07 11:47:16;;;;;;;;;;;19.10;28.30;19.30;94708.00;;;;10415704;28;48434;-81
2022/02/07 11:52:46;;;;;;;9.73;0.80;;;19.20;28.20;19.30;94724.00;;;;10421733;28;46744;-78
2022/02/07 11:58:01;;;;;;;3.33;0.80;;;19.20;28.50;19.30;94717.00;;;;10405263;28;47172;-79
2022/02/07 12:03:06;;;;;;;3.65;0.60;;;19.30;28.30;19.30;94691.00;;;;10386358;28;46877;-81
2022/02/07 12:08:26;;;;;;;4.65;0.68;;;19.20;28.10;19.30;94709.00;;;;10385011;28;47656;-79
2022/02/07 12:13:41;;;;;;;3.00;0.60;;;19.20;27.50;19.30;94731.00;;;;10378076;28;46988;-80
2022/02/07 12:18:50;;;;;;;3.80;0.70;;;19.30;28.00;19.30;94732.00;;;;10344321;28;47160;-80
2022/02/07 12:23:56;;;;;;;3.17;0.77;;;19.20;27.90;19.30;94732.00;;;;10376941;28;47161;-80
2022/02/07 12:29:01;;;;;;;3.50;0.52;;;19.30;27.80;19.30;94743.00;;;;10401407;28;45446;-80
2022/02/07 12:34:12;;;;;;;1.77;0.40;;;19.30;27.80;19.30;94732.00;;;;10384659;28;47541;-80
2022/02/07 12:39:15;;;;;;;2.63;0.60;;;19.30;27.70;19.30;94749.00;;;;10384892;28;47140;-81
2022/02/07 12:44:22;;;;;;;3.13;0.60;;;19.30;27.70;19.30;94741.00;;;;10381263;28;47258;-81
2022/02/07 12:49:24;;;;;;;2.85;0.50;;;19.30;27.50;19.20;94758.00;;;;10385979;28;47276;-81
2022/02/07 12:54:26;;;;;;;4.10;0.50;;;19.20;27.50;19.20;94751.00;;;;10384331;28;46961;-80
2022/02/07 12:59:26;;;;;;;1.63;0.40;;;19.10;27.40;19.20;94763.00;;;;10385256;28;47274;-81
2022/02/07 13:04:27;;;;;;;4.15;0.60;;;19.10;28.00;19.10;94769.00;;;;10384197;28;48415;-81
2022/02/07 13:09:33;;;;;;;2.15;0.50;;;19.00;27.40;19.10;94791.00;;;;10381164;28;47052;-81
2022/02/07 13:14:46;;;;;;;1.40;0.50;;;19.00;27.40;19.00;94775.00;;;;10383211;28;47040;-80
2022/02/07 13:19:52;;;;;;;3.30;0.50;;;19.00;27.30;19.10;94786.00;;;;10344889;28;47113;-81
2022/02/07 13:24:57;;;;;;;2.97;0.60;;;18.90;27.40;19.00;94798.00;;;;10319999;28;48567;-80
2022/02/07 13:30:00;;;;;;;1.50;0.52;;;18.90;27.40;19.00;94779.00;;;;10319894;28;45419;-81
2022/02/07 13:35:09;;;;;;;1.95;0.47;;;18.90;27.40;19.00;94782.00;;;;10302218;28;46913;-81
2022/02/07 13:40:21;;;;;;;2.13;0.40;;;18.90;27.40;19.00;94781.00;;;;10320660;28;46396;-81
2022/02/07 13:45:25;;;;;;;1.13;0.45;;;18.90;27.50;19.00;94779.00;;;;10303456;28;47501;-81
2022/02/07 13:50:29;;;;;;;1.33;0.30;;;18.90;27.50;19.00;94796.00;;;;10302886;28;47473;-81
2022/02/07 13:55:35;;;;;;;2.70;0.63;;;18.90;27.60;19.00;94795.00;;;;10301734;28;47175;-77
2022/02/07 14:00:40;;;;;;;2.40;0.40;;;18.90;26.60;19.00;94814.00;;;;10344576;28;45303;-80
2022/02/07 14:05:50;;;;;;;2.78;0.63;;;18.90;27.10;19.00;94804.00;;;;10400796;28;45427;-78
2022/02/07 14:10:51;;;;;;;1.90;0.52;;;18.90;27.50;19.00;94811.00;;;;10381356;28;47054;-78
2022/02/07 14:15:52;;;;;;;0.98;0.43;;;18.90;27.70;19.00;94817.00;;;;10397940;28;45487;-78
2022/02/07 14:20:54;;;;;;;1.30;0.30;;;18.90;27.60;19.00;94818.00;;;;10372400;28;47256;-77
2022/02/07 14:26:00;;;;;;;1.30;0.25;;;18.90;27.60;19.00;94812.00;;;;10338721;28;47142;-77
2022/02/07 14:31:02;;;;;;;2.63;0.60;;;18.90;27.30;19.00;94804.00;;;;10353891;28;47527;-78
2022/02/07 14:36:03;;;;;;;3.88;0.30;;;18.90;27.00;19.00;94810.00;;;;10349988;28;47131;-82
2022/02/07 14:41:06;;;;;;;1.92;0.50;;;18.90;26.80;19.10;94811.00;;;;10367729;22;45701;-78
2022/02/07 14:46:09;;;;;;;1.80;0.52;;;19.00;27.10;19.10;94808.00;;;;10323467;28;46936;-77
2022/02/07 14:51:10;;;;;;;1.83;0.52;;;19.00;27.10;19.10;94822.00;;;;10356290;28;47210;-76
2022/02/07 14:56:11;;;;;;;2.78;0.55;;;19.00;26.50;19.00;94830.00;;;;10339223;28;47436;-77
2022/02/07 15:01:13;;;;;;;2.40;0.40;;;19.00;26.10;19.10;94841.00;;;;10322408;28;48381;-77
2022/02/07 15:06:14;;;;;;;1.42;0.32;;;19.00;25.80;19.00;94814.00;;;;10367378;28;46530;-77
2022/02/07 15:11:16;;;;;;;1.92;0.40;;;19.00;25.70;19.00;94822.00;;;;10378657;28;45606;-77
2022/02/07 15:16:17;;;;;;;2.05;0.63;;;19.00;25.30;19.00;94815.00;;;;10351340;28;46242;-77
2022/02/07 15:21:17;;;;;;;1.67;0.40;;;19.00;25.50;19.00;94829.00;;;;10322051;28;47298;-77
2022/02/07 15:26:22;;;;;;;1.83;0.50;;;18.90;25.30;19.00;94830.00;;;;10322210;28;47072;-77
2022/02/07 15:31:29;;;;;;;1.85;0.35;;;18.90;25.70;19.00;94824.00;;;;10339277;28;45459;-76
2022/02/07 15:36:30;;;;;;;;;;;18.90;25.20;19.00;94832.00;;;;10322704;28;48011;-77
2022/02/07 15:41:30;;;;;;;1.05;0.40;;;18.90;25.90;19.00;94830.00;;;;10320649;28;47437;-77
2022/02/07 15:46:32;;;;;;;1.08;0.28;;;18.90;25.40;19.00;94835.00;;;;10321420;28;48290;-77
2022/02/07 15:51:33;;;;;;;1.50;0.60;;;18.90;25.20;19.00;94843.00;;;;10321024;28;48005;-76
2022/02/07 15:56:33;;;;;;;2.70;0.52;;;18.80;24.80;19.00;94824.00;;;;10321208;28;47548;-77
2022/02/07 16:01:34;;;;;;;2.83;0.60;;;18.90;25.20;19.00;94842.00;;;;10337741;28;46915;-77
2022/02/07 16:06:35;;;;;;;2.13;0.57;;;18.80;25.30;18.90;94848.00;;;;10321169;28;47552;-77
2022/02/07 16:11:37;;;;;;;2.03;0.43;;;18.80;25.50;18.90;94843.00;;;;10320991;28;48665;-78
2022/02/07 16:16:41;;;;;;;1.20;0.50;;;18.80;24.80;18.90;94847.00;;;;10331179;28;47332;-78
2022/02/07 16:21:42;;;;;;;1.83;0.40;;;18.80;25.30;18.90;94857.00;;;;10366794;28;47424;-77
2022/02/07 16:26:45;;;;;;;1.88;0.60;;;18.70;25.30;18.90;94874.00;;;;10385716;28;46560;-77
2022/02/07 16:31:47;;;;;;;1.30;0.60;;;18.70;25.10;18.80;94876.00;;;;10367011;28;47143;-77
2022/02/07 16:36:52;;;;;;;2.15;0.70;;;18.70;24.90;18.80;94880.00;;;;10384856;28;45199;-77
2022/02/07 16:41:53;;;;;;;22.20;7.60;;;18.60;24.90;18.80;94890.00;;;;10367392;28;47233;-77
2022/02/07 16:46:55;;;;;;;15.18;6.55;;;18.60;25.00;18.70;94867.00;;;;10357476;28;47090;-78
2022/02/07 16:51:59;;;;;;;10.20;4.50;;;18.60;25.10;18.70;94891.00;;;;10362862;28;45367;-77
2022/02/07 16:56:59;;;;;;;7.47;2.75;;;18.60;24.90;18.70;94886.00;;;;10359392;28;45601;-77
2022/02/07 17:02:00;;;;;;;5.38;2.03;;;18.50;24.20;18.60;94910.00;;;;10345532;28;47277;-77
2022/02/07 17:07:05;;;;;;;4.90;1.70;;;18.40;24.40;18.60;94910.00;;;;10345554;28;47066;-77
2022/02/07 17:12:06;;;;;;;4.00;1.35;;;18.40;24.50;18.60;94913.00;;;;10380669;28;45238;-77
2022/02/07 17:17:07;;;;;;;2.85;1.10;;;18.40;24.40;18.60;94921.00;;;;10349305;28;46914;-77
2022/02/07 17:22:08;;;;;;;2.78;0.98;;;18.40;24.30;18.60;94924.00;;;;10331943;28;47513;-77
2022/02/07 17:27:09;;;;;;;2.50;0.90;;;18.40;24.50;18.60;94927.00;;;;10325960;28;47077;-77
2022/02/07 17:32:10;;;;;;;2.15;0.75;;;18.40;24.70;18.60;94936.00;;;;10324896;28;47174;-77
2022/02/07 17:37:18;;;;;;;3.55;0.80;;;18.30;24.70;18.60;94942.00;;;;10325084;28;47468;-77
2022/02/07 17:42:25;;;;;;;4.95;0.80;;;18.40;24.80;18.60;94933.00;;;;10362804;28;47410;-77
2022/02/07 17:47:26;;;;;;;2.05;0.70;;;18.40;25.00;18.60;94947.00;;;;10366397;28;47025;-77
2022/02/07 17:52:31;;;;;;;3.13;0.82;;;18.40;25.00;18.60;94956.00;;;;10365557;28;47231;-77
2022/02/07 17:57:32;;;;;;;2.13;0.60;;;18.40;24.90;18.70;94972.00;;;;10349626;28;45228;-77
2022/02/07 18:02:33;;;;;;;1.92;0.90;;;18.50;24.90;18.70;94963.00;;;;10324448;28;48298;-77
2022/02/07 18:07:38;;;;;;;2.75;1.00;;;18.50;24.50;18.70;94984.00;;;;10341277;28;45418;-77
2022/02/07 18:12:39;;;;;;;3.47;1.17;;;18.50;24.90;18.70;94989.00;;;;10326636;28;46922;-76
2022/02/07 18:17:45;;;;;;;4.00;1.90;;;18.50;24.20;18.70;94990.00;;;;10340621;28;47047;-77
2022/02/07 18:22:52;;;;;;;9.90;3.57;;;18.60;25.10;18.70;94991.00;;;;10364375;28;47107;-76
2022/02/07 18:28:01;;;;;;;5.53;2.30;;;18.60;24.90;18.70;95001.00;;;;10381968;28;46161;-76
2022/02/07 18:33:03;;;;;;;4.57;1.80;;;18.60;24.70;18.70;94990.00;;;;10363974;28;47148;-76
2022/02/07 18:38:04;;;;;;;3.47;1.17;;;18.50;24.60;18.70;95006.00;;;;10364072;28;47361;-76
2022/02/07 18:43:05;;;;;;;2.95;0.95;;;18.50;24.50;18.70;95005.00;;;;10363020;28;46934;-76
2022/02/07 18:48:09;;;;;;;3.50;0.93;;;18.50;24.60;18.70;95002.00;;;;10364391;28;47895;-76
2022/02/07 18:53:11;;;;;;;2.55;0.90;;;18.50;24.40;18.60;95017.00;;;;10366783;28;47311;-76
2022/02/07 19:08:30;;;;;;;3.53;0.75;;;18.40;24.10;18.50;95028.00;;;;10379816;28;45210;-76
2022/02/07 19:13:32;;;;;;;2.00;0.70;;;18.40;24.00;18.50;95042.00;;;;10379171;28;46481;-77
2022/02/07 19:18:49;;;;;;;3.25;0.70;;;18.40;24.00;18.50;95067.00;;;;10363098;28;47453;-76
2022/02/07 19:23:56;;;;;;;3.25;1.35;;;18.30;24.10;18.50;95048.00;;;;10347830;28;46581;-76
2022/02/07 19:29:06;;;;;;;4.68;1.20;;;18.30;24.00;18.50;95060.00;;;;10338324;28;46982;-76
2022/02/07 19:34:17;;;;;;;6.10;2.20;;;18.30;24.00;18.40;95073.00;;;;10322775;28;47172;-76
2022/02/07 19:39:18;;;;;;;5.35;2.30;;;18.20;24.10;18.40;95060.00;;;;10322901;28;48289;-76
2022/02/07 19:44:23;;;;;;;6.70;2.58;;;18.20;24.00;18.40;95067.00;;;;10320775;28;47905;-76
2022/02/07 19:49:24;;;;;;;3.65;1.60;;;18.20;24.10;18.40;95073.00;;;;10338472;28;46307;-77
2022/02/07 19:54:25;;;;;;;3.92;2.03;;;18.20;24.20;18.40;95071.00;;;;10338540;28;45478;-76
2022/02/07 19:59:26;;;;;;;3.58;1.50;;;18.20;24.20;18.30;95058.00;;;;10345183;28;46499;-76
2022/02/07 20:04:26;;;;;;;3.38;1.70;;;18.10;24.10;18.40;95067.00;;;;10327875;28;47165;-76
2022/02/07 20:09:43;;;;;;;4.50;1.65;;;18.10;23.90;18.30;95080.00;;;;10327881;28;48312;-76
2022/02/07 20:14:54;;;;;;;2.90;1.33;;;18.10;24.20;18.30;95070.00;;;;10360429;28;47256;-76
2022/02/07 20:19:57;;;;;;;4.22;1.10;;;18.10;24.00;18.30;95087.00;;;;10345819;28;45402;-76
2022/02/07 20:24:57;;;;;;;3.22;1.08;;;18.00;24.00;18.30;95087.00;;;;10346364;28;45486;-76
2022/02/07 20:29:58;;;;;;;3.83;1.02;;;18.00;24.10;18.30;95108.00;;;;10360094;28;47210;-76
2022/02/07 20:35:00;;;;;;;2.10;0.90;;;18.00;24.10;18.20;95117.00;;;;10359896;28;47088;-76
2022/02/07 20:40:00;;;;;;;2.08;0.90;;;18.00;23.60;18.20;95113.00;;;;10361667;28;45324;-76
2022/02/07 20:45:02;;;;;;;2.83;0.90;;;17.90;23.70;18.20;95091.00;;;;10359859;28;48181;-76
2022/02/07 20:50:04;;;;;;;2.88;0.75;;;17.90;24.10;18.20;95096.00;;;;10360195;28;47521;-76
2022/02/07 20:55:07;;;;;;;1.30;0.60;;;17.90;23.90;18.20;95106.00;;;;10341569;28;45417;-76
2022/02/07 21:00:09;;;;;;;1.80;0.70;;;17.90;23.90;18.10;95099.00;;;;10357620;28;47520;-76
2022/02/07 21:05:15;;;;;;;1.92;0.70;;;17.90;24.00;18.20;95098.00;;;;10358687;28;47011;-76
2022/02/07 21:10:16;;;;;;;2.15;0.68;;;17.90;23.90;18.20;95114.00;;;;10342508;28;47172;-76
2022/02/07 21:15:17;;;;;;;2.70;0.60;;;17.90;24.30;18.20;95110.00;;;;10358994;28;47084;-76
2022/02/07 21:20:18;;;;;;;1.58;0.57;;;17.90;24.20;18.20;95122.00;;;;10341526;28;47250;-76
2022/02/07 21:25:19;;;;;;;2.10;0.80;;;17.90;24.30;18.10;95117.00;;;;10341821;28;46983;-76
2022/02/07 21:30:19;;;;;;;2.97;0.60;;;17.90;24.20;18.20;95129.00;;;;10342296;28;47115;-76
2022/02/07 21:35:25;;;;;;;2.58;0.60;;;17.90;24.10;18.20;95122.00;;;;10358225;28;48242;-76
2022/02/07 21:40:29;;;;;;;3.30;0.70;;;18.00;24.00;18.20;95118.00;;;;10358752;28;47498;-76
2022/02/07 21:45:32;;;;;;;3.28;0.60;;;18.00;24.10;18.30;95112.00;;;;10358383;28;47165;-76
2022/02/07 21:50:32;;;;;;;3.47;1.00;;;18.00;24.10;18.30;95127.00;;;;10341437;28;46705;-76
2022/02/07 21:55:33;;;;;;;4.18;1.30;;;18.10;24.10;18.30;95126.00;;;;10341289;28;47794;-76
2022/02/07 22:00:35;;;;;;;2.15;1.00;;;18.10;24.10;18.30;95132.00;;;;10357668;28;47209;-76
2022/02/07 22:05:35;;;;;;;4.32;1.10;;;18.10;23.90;18.30;95144.00;;;;10357251;28;47992;-76
2022/02/07 22:10:39;;;;;;;2.65;0.80;;;18.10;24.00;18.30;95148.00;;;;10357153;28;47156;-76
2022/02/07 22:15:55;;;;;;;3.78;0.82;;;18.10;24.00;18.30;95153.00;;;;10357373;28;48304;-76
2022/02/07 22:21:00;;;;;;;2.40;0.70;;;18.10;24.70;18.20;95160.00;;;;10349369;28;46943;-76
2022/02/07 22:26:03;;;;;;;2.47;0.80;;;18.00;23.50;18.20;95146.00;;;;10365521;28;47336;-76
2022/02/07 22:31:15;;;;;;;3.30;0.80;;;18.10;24.00;18.20;95171.00;;;;10364631;28;47358;-76
2022/02/07 22:36:19;;;;;;;3.17;1.02;;;18.00;23.70;18.20;95160.00;;;;10365388;28;47355;-75
2022/02/07 22:41:20;;;;;;;2.25;0.70;;;18.00;24.10;18.20;95170.00;;;;10380322;28;45197;-76
2022/02/07 22:46:20;;;;;;;3.38;0.80;;;17.90;23.90;18.20;95158.00;;;;10363957;28;48241;-76
2022/02/07 22:51:23;;;;;;;1.05;0.50;;;17.90;24.20;18.10;95160.00;;;;10380377;28;45435;-76
2022/02/07 22:56:24;;;;;;;1.90;0.50;;;17.90;24.20;18.10;95176.00;;;;10380663;28;45459;-76
2022/02/07 23:01:25;;;;;;;2.00;0.60;;;17.90;24.20;18.10;95169.00;;;;10363861;28;46963;-76
2022/02/07 23:06:28;;;;;;;2.05;0.60;;;17.80;24.40;18.10;95168.00;;;;10363367;28;47718;-75
2022/02/07 23:37:20;;;;;;;2.35;0.70;;;17.70;24.70;18.00;95189.00;;;;10338316;28;45166;-76
2022/02/07 23:42:39;;;;;;;2.88;0.50;;;17.80;24.90;18.00;95175.00;;;;10339883;28;45465;-76
2022/02/07 23:47:44;;;;;;;2.10;0.40;;;17.80;24.70;18.00;95173.00;;;;10324004;28;47647;-76
2022/02/07 23:53:12;;;;;;;1.65;0.40;;;17.80;24.90;18.00;95168.00;;;;10338737;28;45418;-76
2022/02/07 23:58:30;;;;;;;;;;;17.80;25.00;18.00;95169.00;;;;10325346;28;48140;-76
